Monte — V2FS2 — position and weather

sailwx.info

Track history (hours):
 
Tides and Currents Weather Stations Pressure Air Temp Water Temp Dewpoint Dewpoint Depression Visibility Wind Speed Wind Dir Waves Ship Positions

Monte

Last reported at 2016-May-29 06:31 UTC. Time now 2016-May-29 19:12 UTC.
Position N 57°11' W 002°02'.

Length 104 m; draft 4.1 m.

Type: Cargo ship. MMSI: 305777000.

Date/timePositionNaut miles runAvg speedWind from/ knotsBaromVisibWave heightAir tempDewpointWater temp
2016-May-29 06:31N 57°11' W 002°02'12 0.8
2016-May-28 14:33N 56°60' W 001°54'13510.9
2016-May-28 02:14N 54°56' W 000°18'1911.2
2016-May-28 00:33N 54°39' W 000°05'1111.3
2016-May-27 23:33N 54°28' E 000°02'1110.6
2016-May-27 22:33N 54°19' E 000°10'1010.1
2016-May-27 21:33N 54°09' E 000°17'10 9.4
2016-May-27 20:33N 54°01' E 000°25'5410.6
2016-May-27 15:26N 53°16' E 001°15'1111.8
2016-May-27 14:33N 53°07' E 001°24'1010.6
2016-May-27 13:33N 52°58' E 001°34'10 9.7
2016-May-27 12:33N 52°51' E 001°46'17 8.0
2016-May-27 10:28N 52°40' E 002°06'6010.0
2016-May-27 04:29N 51°50' E 003°01'1010.3
2016-May-27 03:30N 51°45' E 003°14'9 9.8
2016-May-27 02:33N 51°37' E 003°22'9 9.2
2016-May-27 01:33N 51°29' E 003°30'8 8.4
2016-May-27 00:33N 51°24' E 003°41'9 9.5
2016-May-26 23:33N 51°22' E 003°56'7 7.4
2016-May-26 22:33N 51°22' E 004°08'6 6.0
2016-May-26 21:33N 51°21' E 004°17'0 0.0
2016-May-26 20:33N 51°21' E 004°17'0 0.4
2016-May-26 19:33N 51°21' E 004°18'6 5.9
2016-May-26 18:32N 51°16' E 004°23'0 0.0
2016-May-26 17:32N 51°16' E 004°23'0 0.0
2016-May-26 16:32N 51°16' E 004°23'0 0.0
2016-May-26 15:32N 51°16' E 004°23'0 0.0
2016-May-26 14:32N 51°16' E 004°23'0 0.0
2016-May-26 13:32N 51°16' E 004°23'0 0.0
2016-May-26 12:32N 51°16' E 004°23'0 0.0
2016-May-26 11:32N 51°16' E 004°23'0 0.0
2016-May-26 10:31N 51°16' E 004°23'0 0.0
2016-May-26 09:31N 51°16' E 004°23'0 0.0
2016-May-26 08:31N 51°16' E 004°23'0 0.0
2016-May-26 07:31N 51°16' E 004°23'0 0.0
2016-May-26 06:31N 51°16' E 004°23'0 0.0
2016-May-26 05:31N 51°16' E 004°23'0 0.0
2016-May-26 04:31N 51°16' E 004°23'0 0.0
2016-May-26 03:31N 51°16' E 004°23'0 0.0
2016-May-26 02:31N 51°16' E 004°23'0 0.0
2016-May-26 01:31N 51°16' E 004°23'0 0.0
2016-May-26 00:31N 51°16' E 004°23'0 0.0
2016-May-25 23:31N 51°16' E 004°23'0 0.0
2016-May-25 22:31N 51°16' E 004°23'0 0.0
2016-May-25 21:31N 51°16' E 004°23'0 0.0
2016-May-25 20:31N 51°16' E 004°23'0 0.0
2016-May-25 19:31N 51°16' E 004°23'0 0.0
2016-May-25 18:31N 51°16' E 004°23'2 2.2
2016-May-25 17:33N 51°17' E 004°20'2 1.8
2016-May-25 16:33N 51°18' E 004°18'7 7.3
2016-May-25 15:33N 51°23' E 004°10'8 7.8
2016-May-25 14:33N 51°26' E 003°58'1010.0
2016-May-25 13:34N 51°23' E 003°43'9 9.3
2016-May-25 12:33N 51°25' E 003°29'9 9.0
2016-May-25 11:33N 51°24' E 003°14'9 9.2
2016-May-25 10:34N 51°23' E 002°60'8 8.5
2016-May-25 09:33N 51°22' E 002°46'6 5.5
2016-May-25 08:32N 51°21' E 002°37'6 4.6
2016-May-25 07:10N 51°21' E 002°27'21 8.0
2016-May-25 04:33N 51°10' E 001°59'9 9.1
2016-May-25 03:34N 51°05' E 001°46'85 9.5
2016-May-24 18:34N 50°16' W 000°03'8 8.2
2016-May-24 17:34N 50°14' W 000°16'65 9.2
2016-May-24 10:26N 49°58' W 001°54'13410.4
2016-May-23 21:33N 48°60' W 005°00'9 9.2
2016-May-23 20:34N 48°55' W 005°12'1010.1
2016-May-23 19:32N 48°49' W 005°25'  
2016-May-21 03:32N 39°16' W 009°49'1010.4
2016-May-21 02:34N 39°06' W 009°50'1010.3
2016-May-21 01:33N 38°55' W 009°50'1010.3
2016-May-21 00:33N 38°45' W 009°50'9 9.5
2016-May-20 23:33N 38°36' W 009°46'9 8.6
2016-May-20 22:33N 38°30' W 009°39'9 9.0
2016-May-20 21:33N 38°26' W 009°28'10 9.5
2016-May-20 20:33N 38°23' W 009°17'9 9.1
2016-May-20 19:33N 38°24' W 009°06'1110.8
2016-May-20 18:33N 38°30' W 008°55'3 1.2
2016-May-20 16:12N 38°30' W 008°51'0 0.0
2016-May-20 15:33N 38°30' W 008°51'0 0.0
2016-May-20 14:06N 38°30' W 008°51'0 0.0
2016-May-20 04:06N 38°30' W 008°51'0 0.0
2016-May-19 21:33N 38°30' W 008°51'9 9.0
2016-May-19 20:32N 38°25' W 009°01'1010.6
2016-May-19 19:33N 38°22' W 009°14'1111.1
2016-May-19 18:34N 38°31' W 009°21'1010.2
2016-May-19 17:33N 38°41' W 009°17'9 9.1
2016-May-19 16:33N 38°44' W 009°06'0 0.0
2016-May-19 15:33N 38°44' W 009°06'0 0.0
2016-May-19 14:30N 38°44' W 009°06'0 0.0
2016-May-19 13:33N 38°44' W 009°06'0 0.0
2016-May-19 12:33N 38°44' W 009°06'0 0.0
2016-May-19 11:33N 38°44' W 009°06'0 0.0
2016-May-19 10:24N 38°44' W 009°06'0 0.0
2016-May-19 09:33N 38°44' W 009°06'0 0.0
2016-May-19 08:33N 38°44' W 009°06'0 0.0
2016-May-19 07:30N 38°44' W 009°06'0 0.0
2016-May-19 06:33N 38°44' W 009°06'  
Track history (hours):
 
Tides and Currents Weather Stations Pressure Air Temp Water Temp Dewpoint Dewpoint Depression Visibility Wind Speed Wind Dir Waves Ship Positions

Monte

Last reported at 2016-May-29 06:31 UTC. Time now 2016-May-29 19:12 UTC.
Position N 57°11' W 002°02'.

Length 104 m; draft 4.1 m.

Type: Cargo ship. MMSI: 305777000.

Date/timePositionNaut miles runAvg speedWind from/ knotsBaromVisibWave heightAir tempDewpointWater temp
2016-May-29 06:31N 57°11' W 002°02'12 0.8
2016-May-28 14:33N 56°60' W 001°54'13510.9
2016-May-28 02:14N 54°56' W 000°18'1911.2
2016-May-28 00:33N 54°39' W 000°05'1111.3
2016-May-27 23:33N 54°28' E 000°02'1110.6
2016-May-27 22:33N 54°19' E 000°10'1010.1
2016-May-27 21:33N 54°09' E 000°17'10 9.4
2016-May-27 20:33N 54°01' E 000°25'5410.6
2016-May-27 15:26N 53°16' E 001°15'1111.8
2016-May-27 14:33N 53°07' E 001°24'1010.6
2016-May-27 13:33N 52°58' E 001°34'10 9.7
2016-May-27 12:33N 52°51' E 001°46'17 8.0
2016-May-27 10:28N 52°40' E 002°06'6010.0
2016-May-27 04:29N 51°50' E 003°01'1010.3
2016-May-27 03:30N 51°45' E 003°14'9 9.8
2016-May-27 02:33N 51°37' E 003°22'9 9.2
2016-May-27 01:33N 51°29' E 003°30'8 8.4
2016-May-27 00:33N 51°24' E 003°41'9 9.5
2016-May-26 23:33N 51°22' E 003°56'7 7.4
2016-May-26 22:33N 51°22' E 004°08'6 6.0
2016-May-26 21:33N 51°21' E 004°17'0 0.0
2016-May-26 20:33N 51°21' E 004°17'0 0.4
2016-May-26 19:33N 51°21' E 004°18'6 5.9
2016-May-26 18:32N 51°16' E 004°23'0 0.0
2016-May-26 17:32N 51°16' E 004°23'0 0.0
2016-May-26 16:32N 51°16' E 004°23'0 0.0
2016-May-26 15:32N 51°16' E 004°23'0 0.0
2016-May-26 14:32N 51°16' E 004°23'0 0.0
2016-May-26 13:32N 51°16' E 004°23'0 0.0
2016-May-26 12:32N 51°16' E 004°23'0 0.0
2016-May-26 11:32N 51°16' E 004°23'0 0.0
2016-May-26 10:31N 51°16' E 004°23'0 0.0
2016-May-26 09:31N 51°16' E 004°23'0 0.0
2016-May-26 08:31N 51°16' E 004°23'0 0.0
2016-May-26 07:31N 51°16' E 004°23'0 0.0
2016-May-26 06:31N 51°16' E 004°23'0 0.0
2016-May-26 05:31N 51°16' E 004°23'0 0.0
2016-May-26 04:31N 51°16' E 004°23'0 0.0
2016-May-26 03:31N 51°16' E 004°23'0 0.0
2016-May-26 02:31N 51°16' E 004°23'0 0.0
2016-May-26 01:31N 51°16' E 004°23'0 0.0
2016-May-26 00:31N 51°16' E 004°23'0 0.0
2016-May-25 23:31N 51°16' E 004°23'0 0.0
2016-May-25 22:31N 51°16' E 004°23'0 0.0
2016-May-25 21:31N 51°16' E 004°23'0 0.0
2016-May-25 20:31N 51°16' E 004°23'0 0.0
2016-May-25 19:31N 51°16' E 004°23'0 0.0
2016-May-25 18:31N 51°16' E 004°23'2 2.2
2016-May-25 17:33N 51°17' E 004°20'2 1.8
2016-May-25 16:33N 51°18' E 004°18'7 7.3
2016-May-25 15:33N 51°23' E 004°10'8 7.8
2016-May-25 14:33N 51°26' E 003°58'1010.0
2016-May-25 13:34N 51°23' E 003°43'9 9.3
2016-May-25 12:33N 51°25' E 003°29'9 9.0
2016-May-25 11:33N 51°24' E 003°14'9 9.2
2016-May-25 10:34N 51°23' E 002°60'8 8.5
2016-May-25 09:33N 51°22' E 002°46'6 5.5
2016-May-25 08:32N 51°21' E 002°37'6 4.6
2016-May-25 07:10N 51°21' E 002°27'21 8.0
2016-May-25 04:33N 51°10' E 001°59'9 9.1
2016-May-25 03:34N 51°05' E 001°46'85 9.5
2016-May-24 18:34N 50°16' W 000°03'8 8.2
2016-May-24 17:34N 50°14' W 000°16'65 9.2
2016-May-24 10:26N 49°58' W 001°54'13410.4
2016-May-23 21:33N 48°60' W 005°00'9 9.2
2016-May-23 20:34N 48°55' W 005°12'1010.1
2016-May-23 19:32N 48°49' W 005°25'  
2016-May-21 03:32N 39°16' W 009°49'1010.4
2016-May-21 02:34N 39°06' W 009°50'1010.3
2016-May-21 01:33N 38°55' W 009°50'1010.3
2016-May-21 00:33N 38°45' W 009°50'9 9.5
2016-May-20 23:33N 38°36' W 009°46'9 8.6
2016-May-20 22:33N 38°30' W 009°39'9 9.0
2016-May-20 21:33N 38°26' W 009°28'10 9.5
2016-May-20 20:33N 38°23' W 009°17'9 9.1
2016-May-20 19:33N 38°24' W 009°06'1110.8
2016-May-20 18:33N 38°30' W 008°55'3 1.2
2016-May-20 16:12N 38°30' W 008°51'0 0.0
2016-May-20 15:33N 38°30' W 008°51'0 0.0
2016-May-20 14:06N 38°30' W 008°51'0 0.0
2016-May-20 04:06N 38°30' W 008°51'0 0.0
2016-May-19 21:33N 38°30' W 008°51'9 9.0
2016-May-19 20:32N 38°25' W 009°01'1010.6
2016-May-19 19:33N 38°22' W 009°14'1111.1
2016-May-19 18:34N 38°31' W 009°21'1010.2
2016-May-19 17:33N 38°41' W 009°17'9 9.1
2016-May-19 16:33N 38°44' W 009°06'0 0.0
2016-May-19 15:33N 38°44' W 009°06'0 0.0
2016-May-19 14:30N 38°44' W 009°06'0 0.0
2016-May-19 13:33N 38°44' W 009°06'0 0.0
2016-May-19 12:33N 38°44' W 009°06'0 0.0
2016-May-19 11:33N 38°44' W 009°06'0 0.0
2016-May-19 10:24N 38°44' W 009°06'0 0.0
2016-May-19 09:33N 38°44' W 009°06'0 0.0
2016-May-19 08:33N 38°44' W 009°06'0 0.0
2016-May-19 07:30N 38°44' W 009°06'0 0.0
2016-May-19 06:33N 38°44' W 009°06'  

Dump ship's entire track history